Time;durP1;ratioP1;P1;durP2;ratioP2;P2;SDS_P1;SDS_P2;PMS_P1;PMS_P2;Temp;Humidity;BMP_temperature;BMP_pressure;BME280_temperature;BME280_humidity;BME280_pressure;Samples;Min_cycle;Max_cycle;Signal;HPM_P1;HPM_P2
2023/06/10 00:00:44;;;;;;;8.23;5.07;;;19.20;99.20;;;;;;5095247;28;20405;-63
2023/06/10 00:03:10;;;;;;;8.57;4.75;;;19.10;99.50;;;;;;5095629;28;20105;-63
2023/06/10 00:05:38;;;;;;;8.23;4.90;;;19.10;99.20;;;;;;5094957;28;20048;-65
2023/06/10 00:08:10;;;;;;;10.43;5.18;;;19.10;99.30;;;;;;5095150;28;20067;-63
2023/06/10 00:10:38;;;;;;;7.20;5.10;;;19.00;99.20;;;;;;5095544;28;20121;-64
2023/06/10 00:13:08;;;;;;;7.55;4.85;;;19.10;99.20;;;;;;5095767;28;20055;-64
2023/06/10 00:15:35;;;;;;;7.43;4.63;;;19.00;99.10;;;;;;5095139;28;20040;-64
2023/06/10 00:18:03;;;;;;;7.55;4.57;;;19.00;99.20;;;;;;5074704;28;20048;-63
2023/06/10 00:20:30;;;;;;;8.88;4.65;;;19.00;99.00;;;;;;5074742;28;20403;-65
2023/06/10 00:23:01;;;;;;;7.00;4.40;;;19.00;99.00;;;;;;5075050;28;20055;-63
2023/06/10 00:25:27;;;;;;;8.10;4.32;;;19.00;99.00;;;;;;5075045;28;20468;-64
2023/06/10 00:27:53;;;;;;;10.32;5.03;;;18.90;99.00;;;;;;5094750;28;20048;-63
2023/06/10 00:30:20;;;;;;;10.43;5.13;;;18.80;99.00;;;;;;5095034;28;20056;-64
2023/06/10 00:32:46;;;;;;;7.32;4.78;;;18.80;98.90;;;;;;5095253;28;20074;-64
2023/06/10 00:35:12;;;;;;;8.88;4.60;;;18.90;98.90;;;;;;5094693;28;20055;-63
2023/06/10 00:37:39;;;;;;;8.15;4.60;;;18.80;98.90;;;;;;5094289;28;20071;-63
2023/06/10 00:40:07;;;;;;;8.43;5.00;;;18.80;98.90;;;;;;5094844;28;20051;-63
2023/06/10 00:42:34;;;;;;;8.52;4.70;;;18.70;99.00;;;;;;5094835;28;20044;-64
2023/06/10 00:45:00;;;;;;;9.57;4.88;;;18.70;99.00;;;;;;5094836;28;20044;-64
2023/06/10 00:47:28;;;;;;;7.82;4.60;;;18.70;99.00;;;;;;5094175;28;20060;-64
2023/06/10 00:49:54;;;;;;;9.77;4.97;;;18.70;99.00;;;;;;5094801;28;20063;-63
2023/06/10 00:52:24;;;;;;;7.80;4.20;;;18.60;99.00;;;;;;5094814;28;20071;-64
2023/06/10 00:54:50;;;;;;;6.75;4.13;;;18.50;99.00;;;;;;5094250;28;20436;-64
2023/06/10 00:57:16;;;;;;;8.80;4.85;;;18.60;99.10;;;;;;5093371;28;20419;-64
2023/06/10 00:59:47;;;;;;;7.43;4.65;;;18.50;99.20;;;;;;5094543;28;20059;-64
2023/06/10 01:02:14;;;;;;;8.93;4.57;;;18.50;99.30;;;;;;5094640;28;20051;-64
2023/06/10 01:04:41;;;;;;;9.25;5.13;;;18.40;99.40;;;;;;5094360;28;20048;-64
2023/06/10 01:07:26;;;;;;;9.35;4.70;;;18.40;99.50;;;;;;5093687;28;20113;-64
2023/06/10 01:10:09;;;;;;;9.02;4.78;;;18.40;99.60;;;;;;5094106;28;20622;-64
2023/06/10 01:12:38;;;;;;;;;;;18.30;99.70;;;;;;5094887;28;20044;-64
2023/06/10 01:15:05;;;;;;;8.00;4.85;;;18.20;99.90;;;;;;5094250;28;19923;-64
2023/06/10 01:17:32;;;;;;;10.38;4.63;;;18.20;99.80;;;;;;5093468;28;20066;-63
2023/06/10 01:19:59;;;;;;;10.30;5.43;;;18.20;99.90;;;;;;5093600;28;20051;-63
2023/06/10 01:22:32;;;;;;;8.25;4.95;;;18.20;99.90;;;;;;5094041;28;20415;-63
2023/06/10 01:24:58;;;;;;;10.27;4.82;;;18.10;99.90;;;;;;5094170;28;20079;-63
2023/06/10 01:27:30;;;;;;;8.38;4.75;;;18.10;99.90;;;;;;5093361;28;20056;-63
2023/06/10 01:30:04;;;;;;;10.15;4.90;;;18.00;99.90;;;;;;5093546;28;20476;-63
2023/06/10 01:32:45;;;;;;;9.70;5.00;;;18.00;99.90;;;;;;5093597;28;20464;-64
2023/06/10 01:35:12;;;;;;;6.63;4.55;;;18.00;99.90;;;;;;5093702;28;20048;-63
2023/06/10 01:37:39;;;;;;;8.30;4.80;;;18.00;99.90;;;;;;5093480;28;20056;-64
2023/06/10 01:40:07;;;;;;;8.88;5.07;;;17.90;99.90;;;;;;5093462;28;20093;-63
2023/06/10 01:42:33;;;;;;;8.82;5.22;;;17.90;99.90;;;;;;5093690;28;20044;-64
2023/06/10 01:45:00;;;;;;;8.70;5.35;;;17.90;99.90;;;;;;5093656;28;20052;-64
2023/06/10 01:47:26;;;;;;;8.32;5.18;;;17.90;99.90;;;;;;5092927;28;20048;-63
2023/06/10 01:49:52;;;;;;;8.02;5.40;;;17.90;99.90;;;;;;5093242;28;20534;-64
2023/06/10 01:52:18;;;;;;;8.00;4.72;;;17.80;99.90;;;;;;5093563;28;20059;-65
2023/06/10 01:54:45;;;;;;;9.30;5.50;;;17.80;99.90;;;;;;5093691;28;20048;-64
2023/06/10 01:57:11;;;;;;;8.52;5.20;;;17.70;99.90;;;;;;5092688;28;20479;-65
2023/06/10 01:59:38;;;;;;;10.32;4.97;;;17.70;99.90;;;;;;5093666;28;20060;-62
2023/06/10 02:02:05;;;;;;;8.52;5.72;;;17.70;99.90;;;;;;5093382;28;20055;-63
2023/06/10 02:04:31;;;;;;;8.75;5.50;;;17.70;99.90;;;;;;5093008;28;20056;-64
2023/06/10 02:06:58;;;;;;;7.60;4.82;;;17.60;99.90;;;;;;5092156;28;20048;-63
2023/06/10 02:09:24;;;;;;;8.35;4.90;;;17.60;99.90;;;;;;5093073;28;20089;-64
2023/06/10 02:11:50;;;;;;;10.18;5.50;;;17.50;99.90;;;;;;5093436;28;20051;-63
2023/06/10 02:14:17;;;;;;;9.32;5.10;;;17.50;99.90;;;;;;5093326;28;20048;-64
2023/06/10 02:16:45;;;;;;;8.82;5.35;;;17.40;99.90;;;;;;5093216;28;20055;-63
2023/06/10 02:19:12;;;;;;;8.68;5.53;;;17.40;99.90;;;;;;5092586;28;20048;-62
2023/06/10 02:21:38;;;;;;;8.27;5.53;;;17.50;99.90;;;;;;5092786;28;20056;-63
2023/06/10 02:24:05;;;;;;;9.93;5.80;;;17.40;99.90;;;;;;5093069;28;20044;-63
2023/06/10 02:26:32;;;;;;;10.48;5.53;;;17.40;99.90;;;;;;5092919;28;20044;-63
2023/06/10 02:28:58;;;;;;;8.25;5.38;;;17.40;99.90;;;;;;5092453;28;20444;-63
2023/06/10 02:31:25;;;;;;;9.40;5.60;;;17.30;99.90;;;;;;5092381;28;20047;-63
2023/06/10 02:33:51;;;;;;;8.63;5.50;;;17.30;99.90;;;;;;5092578;28;20245;-63
2023/06/10 02:36:17;;;;;;;12.43;5.47;;;17.20;99.90;;;;;;5092397;28;20050;-63
2023/06/10 02:38:43;;;;;;;8.38;5.55;;;17.20;99.90;;;;;;5092577;28;20044;-63
2023/06/10 02:41:10;;;;;;;12.57;6.05;;;17.10;99.90;;;;;;5092589;28;20048;-63
2023/06/10 02:43:36;;;;;;;7.93;5.55;;;17.10;99.90;;;;;;5092519;28;20322;-63
2023/06/10 02:46:02;;;;;;;9.75;5.38;;;17.10;99.90;;;;;;5092010;28;20376;-63
2023/06/10 02:48:28;;;;;;;8.75;5.78;;;17.10;99.90;;;;;;5092196;28;20051;-63
2023/06/10 02:50:55;;;;;;;9.55;5.55;;;17.00;99.90;;;;;;5092347;28;20055;-64
2023/06/10 02:53:22;;;;;;;9.07;6.10;;;17.00;99.90;;;;;;5092343;28;20067;-64
2023/06/10 02:55:48;;;;;;;10.73;5.65;;;16.90;99.90;;;;;;5092101;28;20365;-62
2023/06/10 02:58:15;;;;;;;8.80;5.78;;;16.90;99.90;;;;;;5092108;28;20040;-64
2023/06/10 03:00:42;;;;;;;9.95;5.75;;;16.90;99.90;;;;;;5092437;28;20402;-65
2023/06/10 03:03:10;;;;;;;9.85;5.97;;;16.80;99.90;;;;;;5091977;28;20721;-65
2023/06/10 03:05:36;;;;;;;8.00;5.82;;;16.80;99.90;;;;;;5092100;28;20051;-63
2023/06/10 03:08:03;;;;;;;11.32;6.25;;;16.80;99.90;;;;;;5091399;28;20491;-63
2023/06/10 03:10:29;;;;;;;10.27;5.90;;;16.80;99.90;;;;;;5092042;28;20511;-64
2023/06/10 03:12:55;;;;;;;10.25;5.93;;;16.80;99.90;;;;;;5092137;28;20393;-62
2023/06/10 03:15:21;;;;;;;7.72;5.90;;;16.70;99.90;;;;;;5091984;28;20044;-64
2023/06/10 03:17:48;;;;;;;8.05;5.72;;;16.70;99.90;;;;;;5091507;28;20054;-64
2023/06/10 03:20:15;;;;;;;9.38;5.72;;;16.70;99.90;;;;;;5091720;28;20036;-64
2023/06/10 03:22:42;;;;;;;8.65;5.65;;;16.60;99.90;;;;;;5092094;28;20391;-63
2023/06/10 03:25:13;;;;;;;9.40;5.93;;;16.60;99.90;;;;;;5092198;28;20086;-63
2023/06/10 03:27:40;;;;;;;;;;;16.60;99.90;;;;;;5091676;28;20055;-64
2023/06/10 03:30:07;;;;;;;8.20;5.85;;;16.50;99.90;;;;;;5091587;28;19954;-64
2023/06/10 03:32:33;;;;;;;10.02;5.75;;;16.60;99.90;;;;;;5091836;28;20056;-63
2023/06/10 03:34:59;;;;;;;10.65;6.50;;;16.60;99.90;;;;;;5091584;28;20090;-63
2023/06/10 03:37:26;;;;;;;10.00;6.60;;;16.50;99.90;;;;;;5091073;28;20456;-63
2023/06/10 03:39:52;;;;;;;10.73;6.75;;;16.50;99.90;;;;;;5091911;28;20052;-65
2023/06/10 03:42:18;;;;;;;10.35;5.70;;;16.50;99.90;;;;;;5091912;28;20047;-64
2023/06/10 03:44:45;;;;;;;9.23;6.15;;;16.50;99.90;;;;;;5091933;28;20081;-64
2023/06/10 03:47:12;;;;;;;9.95;6.10;;;16.50;99.90;;;;;;5091076;28;20060;-62
2023/06/10 03:49:40;;;;;;;8.10;5.35;;;16.50;99.90;;;;;;5091686;28;20059;-63
2023/06/10 03:52:06;;;;;;;10.65;6.30;;;16.40;99.90;;;;;;5092030;28;20055;-64
2023/06/10 03:54:34;;;;;;;8.77;5.93;;;16.50;99.90;;;;;;5091544;28;20044;-64
2023/06/10 03:57:01;;;;;;;8.82;5.95;;;16.50;99.90;;;;;;5090682;28;20533;-62
2023/06/10 03:59:28;;;;;;;10.15;5.50;;;16.50;99.90;;;;;;5091600;28;20067;-64
2023/06/10 04:01:54;;;;;;;10.27;5.43;;;16.50;99.90;;;;;;5091665;28;20048;-65
2023/06/10 04:04:21;;;;;;;9.63;5.30;;;16.50;99.90;;;;;;5091629;28;20101;-63
2023/06/10 04:06:48;;;;;;;7.60;6.00;;;16.50;99.90;;;;;;5091171;28;20254;-62
2023/06/10 04:09:16;;;;;;;8.60;5.65;;;16.50;99.90;;;;;;5092036;28;20066;-63
2023/06/10 04:11:42;;;;;;;7.65;5.38;;;16.50;99.90;;;;;;5091869;28;20044;-63
2023/06/10 04:14:08;;;;;;;9.25;5.45;;;16.60;99.90;;;;;;5091512;28;20094;-63
2023/06/10 04:16:35;;;;;;;11.10;6.18;;;16.60;99.90;;;;;;5091163;28;20041;-63
2023/06/10 04:19:01;;;;;;;9.32;5.35;;;16.60;99.90;;;;;;5091177;28;20048;-63
2023/06/10 04:21:27;;;;;;;8.15;5.68;;;16.60;99.90;;;;;;5091296;28;20403;-63
2023/06/10 04:23:53;;;;;;;10.10;5.55;;;16.60;99.90;;;;;;5091538;28;20123;-62
2023/06/10 04:26:20;;;;;;;7.80;5.38;;;16.60;99.90;;;;;;5091333;28;20063;-63
2023/06/10 04:28:46;;;;;;;9.60;5.05;;;16.60;99.90;;;;;;5091095;28;20048;-63
2023/06/10 04:31:12;;;;;;;8.90;5.10;;;16.70;99.90;;;;;;5092854;28;20067;-64
2023/06/10 04:33:39;;;;;;;9.88;5.40;;;16.70;99.90;;;;;;5094492;28;20382;-63
2023/06/10 04:36:06;;;;;;;8.38;5.38;;;16.80;99.90;;;;;;5094231;28;20478;-64
2023/06/10 04:38:33;;;;;;;10.13;5.60;;;16.80;99.90;;;;;;5094366;28;20120;-64
2023/06/10 04:40:59;;;;;;;7.65;5.68;;;16.80;99.90;;;;;;5093759;28;20044;-64
2023/06/10 04:43:27;;;;;;;8.95;5.53;;;16.80;99.90;;;;;;5094900;28;20054;-62
2023/06/10 04:45:53;;;;;;;10.48;5.28;;;16.90;99.90;;;;;;5094500;28;20040;-63
2023/06/10 04:48:19;;;;;;;9.23;5.47;;;16.80;99.90;;;;;;5094522;28;20062;-64
2023/06/10 04:50:46;;;;;;;10.85;5.50;;;16.90;99.90;;;;;;5094754;28;20056;-64
2023/06/10 04:53:12;;;;;;;10.88;5.95;;;16.90;99.90;;;;;;5094870;28;20055;-62
2023/06/10 04:55:38;;;;;;;9.70;5.55;;;17.70;99.90;;;;;;5094628;28;20044;-63
2023/06/10 04:58:04;;;;;;;7.22;5.30;;;18.60;99.90;;;;;;5093904;28;20059;-64
2023/06/10 05:00:31;;;;;;;9.68;5.75;;;19.50;99.90;;;;;;5094597;28;20059;-64
2023/06/10 05:02:57;;;;;;;7.05;5.18;;;20.30;99.90;;;;;;5094517;28;20044;-64
2023/06/10 05:05:23;;;;;;;9.13;5.70;;;20.80;99.90;;;;;;5093384;28;20052;-62
2023/06/10 05:07:49;;;;;;;8.95;5.30;;;21.20;99.90;;;;;;5093868;28;20048;-63
2023/06/10 05:10:16;;;;;;;9.05;4.97;;;21.50;99.90;;;;;;5094458;28;20101;-63
2023/06/10 05:12:42;;;;;;;8.05;5.55;;;21.80;99.80;;;;;;5094241;28;20063;-63
2023/06/10 05:15:09;;;;;;;7.60;5.15;;;22.00;99.70;;;;;;5094088;28;20535;-64
2023/06/10 05:17:35;;;;;;;9.38;5.55;;;22.20;99.10;;;;;;5093555;28;20123;-62
2023/06/10 05:20:02;;;;;;;7.65;5.07;;;22.30;99.40;;;;;;5094186;28;20055;-63
2023/06/10 05:22:29;;;;;;;8.93;5.07;;;22.70;98.60;;;;;;5094344;28;20044;-63
2023/06/10 05:24:55;;;;;;;8.82;4.95;;;22.80;98.40;;;;;;5094258;28;20063;-62
2023/06/10 05:27:22;;;;;;;7.80;5.20;;;22.70;98.30;;;;;;5093338;28;20389;-63
2023/06/10 05:29:48;;;;;;;7.85;5.18;;;22.70;98.40;;;;;;5094053;28;20114;-62
2023/06/10 05:32:14;;;;;;;7.50;4.75;;;22.90;98.30;;;;;;5094136;28;20063;-63
2023/06/10 05:34:41;;;;;;;9.55;5.30;;;23.00;98.10;;;;;;5093536;28;20047;-63
2023/06/10 05:37:07;;;;;;;9.10;4.72;;;22.90;97.90;;;;;;5093132;28;20040;-63
2023/06/10 05:39:37;;;;;;;9.18;5.32;;;23.30;97.90;;;;;;5093900;28;20105;-63
2023/06/10 05:42:06;;;;;;;7.70;5.00;;;23.60;97.70;;;;;;5094023;28;20128;-63
2023/06/10 05:44:33;;;;;;;9.15;5.72;;;23.90;97.40;;;;;;5093959;28;20052;-63
2023/06/10 05:46:59;;;;;;;8.48;5.07;;;24.10;97.30;;;;;;5093065;28;20051;-63
2023/06/10 05:49:25;;;;;;;8.30;5.47;;;24.40;97.00;;;;;;5093501;28;20054;-63
2023/06/10 05:51:52;;;;;;;9.30;4.80;;;24.50;96.60;;;;;;5093615;28;20044;-63
2023/06/10 05:54:19;;;;;;;8.80;5.15;;;24.00;96.70;;;;;;5093356;28;20349;-64
2023/06/10 05:56:45;;;;;;;10.10;5.32;;;24.10;96.80;;;;;;5092857;28;20051;-63
2023/06/10 05:59:11;;;;;;;8.70;5.47;;;24.30;96.50;;;;;;5083468;28;20120;-64
2023/06/10 06:01:38;;;;;;;9.15;4.85;;;24.10;96.60;;;;;;5082583;28;20047;-63
2023/06/10 06:04:04;;;;;;;8.70;5.13;;;24.60;96.30;;;;;;5081824;28;20472;-63
2023/06/10 06:06:30;;;;;;;8.00;4.70;;;24.60;96.50;;;;;;5086078;28;20112;-63
2023/06/10 06:08:56;;;;;;;7.22;5.30;;;24.70;96.20;;;;;;5082248;28;20052;-65
2023/06/10 06:11:23;;;;;;;7.47;4.55;;;25.00;96.10;;;;;;5081209;28;20102;-64
2023/06/10 06:13:49;;;;;;;7.72;5.03;;;25.00;96.10;;;;;;5083711;28;20132;-64
2023/06/10 06:16:15;;;;;;;6.68;4.95;;;25.10;96.00;;;;;;5084389;28;20036;-65
2023/06/10 06:18:41;;;;;;;8.00;4.60;;;25.10;95.80;;;;;;5081634;28;20395;-63
2023/06/10 06:21:08;;;;;;;6.95;4.57;;;25.20;95.60;;;;;;5083302;28;20063;-63
2023/06/10 06:23:34;;;;;;;10.40;5.03;;;25.60;95.30;;;;;;5081553;28;20157;-63
2023/06/10 06:26:00;;;;;;;7.82;5.07;;;25.60;95.20;;;;;;5083276;28;20448;-63
2023/06/10 06:28:28;;;;;;;9.30;5.13;;;25.50;95.20;;;;;;5083535;28;20044;-63
2023/06/10 06:30:56;;;;;;;8.85;4.72;;;25.60;95.30;;;;;;5080955;28;20063;-63
2023/06/10 06:33:22;;;;;;;9.85;5.30;;;25.30;95.10;;;;;;5082187;28;20040;-63
2023/06/10 06:35:48;;;;;;;10.13;4.78;;;25.20;95.40;;;;;;5082953;28;20043;-63
2023/06/10 06:38:14;;;;;;;7.20;5.40;;;25.30;95.40;;;;;;5082993;28;20465;-63
2023/06/10 06:40:41;;;;;;;9.43;5.18;;;25.30;95.40;;;;;;5081909;28;20035;-64
2023/06/10 06:43:07;;;;;;;10.68;4.78;;;26.00;95.40;;;;;;5082958;28;20131;-65
2023/06/10 06:45:33;;;;;;;8.48;5.10;;;25.90;94.60;;;;;;5081008;28;20040;-64
2023/06/10 06:48:00;;;;;;;9.75;4.97;;;25.70;94.80;;;;;;5083735;28;20051;-62
2023/06/10 06:50:26;;;;;;;9.35;5.00;;;25.50;95.20;;;;;;5082545;28;20056;-63
2023/06/10 06:52:52;;;;;;;6.68;4.53;;;25.90;95.20;;;;;;5080686;28;20048;-64
2023/06/10 06:55:19;;;;;;;7.28;4.63;;;26.20;94.70;;;;;;5081963;28;20101;-64
2023/06/10 06:57:45;;;;;;;7.72;4.68;;;25.90;94.60;;;;;;5087153;28;20051;-65
2023/06/10 07:00:12;;;;;;;7.97;4.63;;;25.60;94.60;;;;;;5091986;28;20420;-63
2023/06/10 07:02:38;;;;;;;8.05;4.75;;;25.00;94.90;;;;;;5074974;28;20048;-63
2023/06/10 07:05:05;;;;;;;7.25;4.70;;;24.50;95.50;;;;;;5089348;28;20126;-63
2023/06/10 07:07:31;;;;;;;7.22;4.70;;;24.10;95.90;;;;;;5084502;28;20048;-63
2023/06/10 07:09:58;;;;;;;7.10;4.80;;;24.00;96.00;;;;;;5090846;28;20044;-62
2023/06/10 07:12:24;;;;;;;9.38;5.28;;;24.00;96.10;;;;;;5088766;28;20055;-62
2023/06/10 07:14:51;;;;;;;8.68;4.97;;;24.20;96.20;;;;;;5092287;28;20360;-63
2023/06/10 07:17:20;;;;;;;6.47;4.93;;;24.10;96.20;;;;;;5091802;28;20048;-63
2023/06/10 07:19:46;;;;;;;7.75;5.20;;;23.90;96.20;;;;;;5091689;28;20423;-63
2023/06/10 07:22:14;;;;;;;10.82;4.68;;;23.60;96.20;;;;;;5091901;28;20044;-64
2023/06/10 07:24:40;;;;;;;9.65;5.20;;;23.50;96.60;;;;;;5091898;28;20066;-64
2023/06/10 07:27:07;;;;;;;6.30;4.28;;;23.60;96.70;;;;;;5091017;28;20415;-63
2023/06/10 07:29:33;;;;;;;7.88;4.55;;;23.70;96.60;;;;;;5082696;28;20371;-64
2023/06/10 07:31:59;;;;;;;8.80;5.32;;;24.00;96.40;;;;;;5080438;28;20048;-62
2023/06/10 07:34:25;;;;;;;8.65;4.50;;;24.00;96.00;;;;;;5081047;28;20364;-63
2023/06/10 07:36:52;;;;;;;7.90;4.75;;;23.90;96.00;;;;;;5079068;28;20109;-64
2023/06/10 07:39:18;;;;;;;7.95;4.90;;;24.00;95.90;;;;;;5082453;28;20044;-64
2023/06/10 07:41:44;;;;;;;9.95;5.90;;;23.90;95.90;;;;;;5074504;28;20044;-63
2023/06/10 07:44:10;;;;;;;7.80;5.30;;;23.90;96.10;;;;;;5074385;28;20044;-64
2023/06/10 07:46:36;;;;;;;9.32;5.75;;;24.00;96.30;;;;;;5083605;28;20109;-63
2023/06/10 07:49:03;;;;;;;8.52;5.47;;;24.00;96.40;;;;;;5081333;28;20048;-63
2023/06/10 07:51:29;;;;;;;7.63;4.50;;;23.90;96.10;;;;;;5079271;28;20052;-63
2023/06/10 07:53:55;;;;;;;10.10;5.15;;;23.80;96.10;;;;;;5080391;28;20110;-63
2023/06/10 07:56:22;;;;;;;7.95;4.78;;;24.10;96.00;;;;;;5082298;28;20444;-63
2023/06/10 07:58:48;;;;;;;6.65;4.72;;;24.10;95.90;;;;;;5079743;28;20369;-63
2023/06/10 08:01:14;;;;;;;8.07;4.72;;;24.40;96.00;;;;;;5082182;28;20126;-63
2023/06/10 08:03:41;;;;;;;7.40;4.55;;;24.50;95.90;;;;;;5080887;28;20044;-62
2023/06/10 08:06:07;;;;;;;10.30;4.97;;;24.50;95.80;;;;;;5083552;28;20044;-63
2023/06/10 08:08:34;;;;;;;8.63;4.50;;;24.40;95.90;;;;;;5086224;28;20105;-63
2023/06/10 08:11:00;;;;;;;10.95;4.93;;;24.40;96.20;;;;;;5093906;28;20464;-62
2023/06/10 08:13:27;;;;;;;9.27;5.38;;;24.40;95.90;;;;;;5089840;28;20064;-64
2023/06/10 08:15:55;;;;;;;8.20;5.20;;;24.40;95.60;;;;;;5083217;28;20055;-64
2023/06/10 08:18:21;;;;;;;10.82;5.75;;;24.60;95.60;;;;;;5083146;28;20044;-64
2023/06/10 08:20:47;;;;;;;7.22;5.60;;;24.80;95.50;;;;;;5084342;28;20069;-64
2023/06/10 08:23:14;;;;;;;9.55;4.95;;;24.90;95.40;;;;;;5085935;28;20048;-63
2023/06/10 08:25:40;;;;;;;8.52;4.38;;;25.00;95.40;;;;;;5084552;28;20048;-63
2023/06/10 08:28:07;;;;;;;9.20;5.35;;;25.00;94.80;;;;;;5085337;28;20044;-64
2023/06/10 08:30:33;;;;;;;7.65;4.72;;;25.00;94.90;;;;;;5085180;28;20059;-64
2023/06/10 08:32:59;;;;;;;7.93;4.80;;;25.10;94.70;;;;;;5084476;28;20040;-64
2023/06/10 08:35:26;;;;;;;7.45;4.60;;;25.10;95.00;;;;;;5083761;28;20048;-63
2023/06/10 08:37:52;;;;;;;8.68;4.78;;;25.10;95.10;;;;;;5086602;28;20044;-63
2023/06/10 08:40:19;;;;;;;5.47;4.00;;;25.20;95.00;;;;;;5083606;28;20391;-64
2023/06/10 08:43:07;;;;;;;6.85;4.45;;;25.30;94.40;;;;;;5084122;28;20412;-63
2023/06/10 08:45:36;;;;;;;9.88;4.63;;;25.30;93.70;;;;;;5100893;28;20059;-64
2023/06/10 08:48:07;;;;;;;7.45;3.92;;;25.50;94.40;;;;;;5084771;28;20040;-62
2023/06/10 08:50:37;;;;;;;5.60;4.13;;;25.60;94.20;;;;;;5085137;28;20044;-63
2023/06/10 08:53:07;;;;;;;8.15;4.15;;;25.60;94.00;;;;;;5083200;28;20044;-63
2023/06/10 08:55:38;;;;;;;9.45;4.18;;;25.40;93.80;;;;;;5083198;28;20075;-65
2023/06/10 08:58:04;;;;;;;6.35;4.03;;;25.30;93.50;;;;;;5082376;28;20044;-64
2023/06/10 09:00:31;;;;;;;7.60;4.65;;;25.20;93.90;;;;;;5074267;28;20044;-64
2023/06/10 09:02:59;;;;;;;5.80;3.92;;;25.10;94.40;;;;;;5074635;28;20052;-64
2023/06/10 09:05:28;;;;;;;6.80;4.30;;;25.40;94.40;;;;;;5076687;28;20406;-63
2023/06/10 09:07:57;;;;;;;8.40;4.70;;;25.40;93.80;;;;;;5085462;28;20478;-64
2023/06/10 09:10:23;;;;;;;7.75;4.28;;;25.60;93.70;;;;;;5083914;28;20052;-64
2023/06/10 09:12:50;;;;;;;6.10;4.38;;;25.70;93.60;;;;;;5082768;28;20047;-63
2023/06/10 09:15:17;;;;;;;6.15;4.38;;;25.70;93.80;;;;;;5091378;28;20494;-64
2023/06/10 09:17:44;;;;;;;9.05;5.10;;;25.70;93.80;;;;;;5093552;28;20101;-64
2023/06/10 09:20:11;;;;;;;6.55;3.83;;;25.90;93.60;;;;;;5075211;28;20452;-64
2023/06/10 09:22:38;;;;;;;7.65;4.20;;;25.90;93.60;;;;;;5073804;28;20381;-63
2023/06/10 09:25:07;;;;;;;7.43;4.65;;;26.10;93.50;;;;;;5073887;28;20422;-64
2023/06/10 09:27:50;;;;;;;9.65;5.13;;;26.20;93.60;;;;;;5086138;28;20052;-64
2023/06/10 09:30:36;;;;;;;9.07;4.47;;;26.10;93.40;;;;;;5093805;28;20049;-64
2023/06/10 09:33:13;;;;;;;8.82;5.05;;;26.20;93.80;;;;;;5081349;28;20044;-64
2023/06/10 09:35:46;;;;;;;11.45;4.30;;;26.20;93.80;;;;;;5082930;28;20048;-63
2023/06/10 09:38:21;;;;;;;7.03;4.70;;;26.20;93.90;;;;;;5079497;28;20400;-63
2023/06/10 09:40:54;;;;;;;5.82;4.25;;;26.30;93.20;;;;;;5073717;28;20040;-63
2023/06/10 09:43:21;;;;;;;7.68;4.40;;;26.10;93.10;;;;;;5073450;28;20469;-64
2023/06/10 09:45:55;;;;;;;7.22;4.35;;;26.20;93.60;;;;;;5081416;28;20452;-64
2023/06/10 09:48:23;;;;;;;8.75;4.55;;;26.30;93.50;;;;;;5076430;28;20044;-65
2023/06/10 09:50:49;;;;;;;6.05;4.38;;;26.40;93.50;;;;;;5082787;28;20432;-64
2023/06/10 09:53:17;;;;;;;7.30;4.93;;;26.60;93.40;;;;;;5082058;28;20040;-63
2023/06/10 09:55:44;;;;;;;7.15;4.38;;;26.70;93.00;;;;;;5073210;28;20411;-64
2023/06/10 09:58:10;;;;;;;5.75;4.55;;;26.60;92.70;;;;;;5090343;28;20044;-65
2023/06/10 10:00:36;;;;;;;8.50;4.88;;;26.60;92.60;;;;;;5093209;28;20048;-64
2023/06/10 10:03:03;;;;;;;6.57;4.53;;;26.60;92.70;;;;;;5093222;28;20044;-64
2023/06/10 10:05:29;;;;;;;11.40;4.97;;;26.70;92.70;;;;;;5085054;28;20056;-64
2023/06/10 10:07:56;;;;;;;6.38;4.55;;;26.70;92.40;;;;;;5088147;28;20043;-64
2023/06/10 10:10:23;;;;;;;8.43;5.10;;;26.60;92.20;;;;;;5086690;28;20047;-64
2023/06/10 10:12:56;;;;;;;7.57;5.28;;;26.60;92.20;;;;;;5080629;28;20066;-65
2023/06/10 10:15:25;;;;;;;8.02;4.93;;;26.80;92.10;;;;;;5083585;28;20033;-63
2023/06/10 10:18:03;;;;;;;7.63;5.13;;;26.80;92.10;;;;;;5086081;28;20044;-63
2023/06/10 10:20:33;;;;;;;8.00;4.72;;;27.00;91.90;;;;;;5083143;28;20101;-63
2023/06/10 10:23:02;;;;;;;6.57;4.32;;;27.10;91.50;;;;;;5092796;28;20048;-63
2023/06/10 10:25:34;;;;;;;7.32;4.63;;;27.00;91.30;;;;;;5083664;28;20057;-64
2023/06/10 10:28:11;;;;;;;7.10;4.65;;;27.10;90.90;;;;;;5081083;28;20186;-63
2023/06/10 10:30:46;;;;;;;8.07;5.43;;;27.20;90.90;;;;;;5083030;28;20048;-64
2023/06/10 10:33:18;;;;;;;7.57;5.97;;;27.40;90.60;;;;;;5083495;28;20044;-64
2023/06/10 10:35:46;;;;;;;7.03;5.22;;;27.40;90.80;;;;;;5083222;28;20445;-63
2023/06/10 10:38:12;;;;;;;7.97;4.95;;;27.60;90.60;;;;;;5082033;28;20098;-64
2023/06/10 10:40:39;;;;;;;6.90;4.50;;;27.40;90.70;;;;;;5083076;28;20048;-63
2023/06/10 10:43:06;;;;;;;7.63;4.95;;;27.60;90.50;;;;;;5077683;28;20048;-64
2023/06/10 10:45:34;;;;;;;6.47;4.63;;;27.70;90.60;;;;;;5081564;28;20056;-64
2023/06/10 10:48:09;;;;;;;7.05;4.90;;;27.50;90.80;;;;;;5082217;28;20059;-64
2023/06/10 10:50:36;;;;;;;7.63;5.15;;;27.70;90.70;;;;;;5080552;28;20044;-63
2023/06/10 10:53:05;;;;;;;5.90;4.80;;;27.70;90.50;;;;;;5082769;28;20043;-63
2023/06/10 10:55:32;;;;;;;9.35;5.63;;;27.70;90.50;;;;;;5081614;28;20106;-63
2023/06/10 10:58:06;;;;;;;7.28;5.32;;;27.80;90.70;;;;;;5082740;28;20060;-64
2023/06/10 11:00:43;;;;;;;7.15;5.32;;;28.00;90.80;;;;;;5081447;28;20055;-64
2023/06/10 11:03:16;;;;;;;7.65;5.13;;;28.00;90.70;;;;;;5080536;28;20391;-64
2023/06/10 11:05:48;;;;;;;8.15;4.88;;;27.90;90.70;;;;;;5080108;28;20376;-64
2023/06/10 11:08:35;;;;;;;7.70;4.80;;;27.80;90.50;;;;;;5079075;28;20048;-65
2023/06/10 11:11:18;;;;;;;7.93;4.85;;;27.80;90.40;;;;;;5065870;28;20093;-64
2023/06/10 11:14:07;;;;;;;9.63;4.93;;;28.00;90.50;;;;;;5087152;28;20087;-63
2023/06/10 11:16:44;;;;;;;7.18;4.95;;;28.10;90.20;;;;;;5091610;28;20123;-65
2023/06/10 11:19:31;;;;;;;;;;;28.10;90.20;;;;;;5092037;28;20597;-64
2023/06/10 11:22:01;;;;;;;6.78;4.65;;;28.00;89.70;;;;;;5082405;28;20560;-64
2023/06/10 11:24:29;;;;;;;6.93;5.00;;;28.10;90.30;;;;;;5086691;28;20044;-65
2023/06/10 11:27:15;;;;;;;9.00;5.53;;;28.10;89.70;;;;;;5090933;28;20051;-65
2023/06/10 11:30:00;;;;;;;5.05;4.38;;;27.90;90.10;;;;;;5091142;28;20070;-64
2023/06/10 11:32:33;;;;;;;9.13;4.80;;;28.10;90.20;;;;;;5090170;28;20048;-65
2023/06/10 11:35:03;;;;;;;5.70;4.53;;;28.20;90.30;;;;;;5091683;28;20044;-64
2023/06/10 11:37:30;;;;;;;8.43;4.65;;;28.30;89.10;;;;;;5090978;28;20044;-64
2023/06/10 11:39:56;;;;;;;7.75;4.60;;;28.50;88.90;;;;;;5092782;28;20044;-64
2023/06/10 11:42:23;;;;;;;7.30;4.47;;;28.40;88.00;;;;;;5095969;28;20043;-64
2023/06/10 11:44:51;;;;;;;6.00;4.10;;;28.30;87.60;;;;;;5095939;28;20044;-64
2023/06/10 11:47:18;;;;;;;6.95;5.00;;;28.40;87.90;;;;;;5095066;28;20055;-64
2023/06/10 11:49:45;;;;;;;6.50;4.72;;;28.60;87.60;;;;;;5095540;28;20573;-64
2023/06/10 11:52:11;;;;;;;5.88;4.30;;;28.50;86.90;;;;;;5095662;28;20462;-64
2023/06/10 11:54:38;;;;;;;6.38;4.43;;;28.50;87.00;;;;;;5095433;28;20517;-64
2023/06/10 11:57:05;;;;;;;5.68;4.47;;;28.70;86.80;;;;;;5094881;28;20059;-64
2023/06/10 11:59:31;;;;;;;7.10;4.22;;;28.70;85.70;;;;;;5095420;28;20043;-64
2023/06/10 12:01:58;;;;;;;5.03;4.28;;;28.60;85.80;;;;;;5091844;28;20055;-64
2023/06/10 12:04:26;;;;;;;9.85;4.60;;;28.60;86.20;;;;;;5095478;28;20328;-65
2023/06/10 12:06:53;;;;;;;7.45;4.57;;;28.80;85.80;;;;;;5094714;28;20491;-64
2023/06/10 12:09:23;;;;;;;6.25;4.47;;;28.90;85.30;;;;;;5095790;28;20062;-64
2023/06/10 12:11:52;;;;;;;5.22;4.30;;;29.00;85.00;;;;;;5095472;28;20044;-64
2023/06/10 12:15:10;;;;;;;7.20;4.40;;;29.10;84.90;;;;;;5095357;28;20063;-64
2023/06/10 12:17:37;;;;;;;6.10;3.83;;;29.10;83.30;;;;;;5049694;28;20052;-65
2023/06/10 12:20:09;;;;;;;9.30;4.05;;;29.00;83.30;;;;;;5095179;28;20058;-63
2023/06/10 12:22:41;;;;;;;10.65;4.47;;;28.90;82.90;;;;;;5095064;28;20074;-64
2023/06/10 12:25:08;;;;;;;5.25;4.10;;;28.90;82.60;;;;;;5095138;28;20076;-65
2023/06/10 12:27:36;;;;;;;5.50;3.67;;;29.00;82.20;;;;;;5092770;28;20051;-64
2023/06/10 12:30:05;;;;;;;8.05;4.13;;;29.00;82.40;;;;;;5093537;28;20085;-65
2023/06/10 12:32:39;;;;;;;5.68;3.83;;;29.20;81.80;;;;;;5092327;28;20044;-66
2023/06/10 12:35:07;;;;;;;6.32;4.13;;;29.40;79.50;;;;;;5091464;28;20051;-65
2023/06/10 12:37:33;;;;;;;9.20;3.97;;;29.30;80.10;;;;;;5090744;28;20048;-66
2023/06/10 12:40:03;;;;;;;4.63;3.65;;;29.40;80.00;;;;;;5091339;28;20048;-64
2023/06/10 12:42:31;;;;;;;7.57;3.58;;;29.30;79.80;;;;;;5091512;28;20048;-65
2023/06/10 12:45:00;;;;;;;4.95;3.33;;;29.30;79.10;;;;;;5091413;28;20366;-65
2023/06/10 12:47:41;;;;;;;5.30;3.28;;;29.30;76.20;;;;;;5092071;28;20048;-64
2023/06/10 12:50:08;;;;;;;6.78;3.65;;;29.10;75.10;;;;;;5094439;28;20063;-64